createdAt,value
2022-07-29T00:01:03.643Z,50.01
2022-07-29T00:03:30.220Z,49.67
2022-07-29T00:05:56.833Z,49.51
2022-07-29T00:08:23.570Z,49.97
2022-07-29T00:10:50.998Z,50.01
2022-07-29T00:13:17.669Z,49.88
2022-07-29T00:15:44.201Z,50.00
2022-07-29T00:18:10.680Z,50.04
2022-07-29T00:20:37.176Z,50.22
2022-07-29T00:23:03.758Z,50.15
2022-07-29T00:25:30.276Z,50.65
2022-07-29T00:27:57.349Z,50.74
2022-07-29T00:30:24.208Z,50.66
2022-07-29T00:32:50.730Z,50.72
2022-07-29T00:35:35.843Z,50.55
2022-07-29T00:38:02.331Z,50.80
2022-07-29T00:40:28.891Z,50.68
2022-07-29T00:42:55.526Z,50.98
2022-07-29T00:45:23.155Z,51.05
2022-07-29T00:47:50.232Z,50.79
2022-07-29T00:50:17.078Z,51.11
2022-07-29T00:52:44.775Z,51.85
2022-07-29T00:55:16.905Z,51.82
2022-07-29T00:57:45.258Z,51.75
2022-07-29T01:00:22.273Z,52.51
2022-07-29T01:02:49.308Z,51.66
2022-07-29T01:05:18.894Z,52.44
2022-07-29T01:07:46.725Z,52.23
2022-07-29T01:10:15.686Z,52.70
2022-07-29T01:12:46.063Z,52.77
2022-07-29T01:15:13.265Z,53.41
2022-07-29T01:17:52.699Z,53.36
2022-07-29T01:20:38.684Z,53.86
2022-07-29T01:23:08.257Z,53.44
2022-07-29T01:25:50.727Z,53.93
2022-07-29T01:28:46.388Z,54.59
2022-07-29T01:31:25.330Z,53.78
2022-07-29T01:34:03.413Z,54.35
2022-07-29T01:36:47.630Z,54.95
2022-07-29T01:39:27.176Z,54.94
2022-07-29T01:42:11.057Z,55.55
2022-07-29T01:44:46.645Z,54.92
2022-07-29T01:47:16.582Z,56.17
2022-07-29T01:49:51.016Z,56.30
2022-07-29T01:52:40.750Z,56.97
2022-07-29T01:55:14.539Z,56.28
2022-07-29T01:57:44.107Z,55.99
2022-07-29T02:00:12.035Z,56.66
2022-07-29T02:02:42.122Z,56.72
2022-07-29T02:05:13.634Z,56.42
2022-07-29T02:07:41.704Z,56.40
2022-07-29T02:10:10.341Z,56.52
2022-07-29T02:12:38.323Z,56.67
2022-07-29T02:15:07.442Z,56.69
2022-07-29T02:17:59.685Z,58.85
2022-07-29T02:20:27.741Z,57.79
2022-07-29T02:22:56.619Z,57.33
2022-07-29T02:25:25.368Z,58.21
2022-07-29T02:28:05.224Z,57.68
2022-07-29T02:30:33.136Z,57.99
2022-07-29T02:33:00.405Z,58.58
2022-07-29T02:35:27.825Z,57.97
2022-07-29T02:38:21.481Z,58.99
2022-07-29T02:40:49.298Z,58.98
2022-07-29T02:43:16.703Z,58.71
2022-07-29T02:45:44.328Z,59.33
2022-07-29T02:48:16.063Z,59.58
2022-07-29T02:50:51.043Z,60.05
2022-07-29T02:53:27.663Z,60.59
2022-07-29T02:56:00.465Z,61.57
2022-07-29T02:58:39.413Z,62.00
2022-07-29T03:01:19.342Z,61.90
2022-07-29T03:03:50.478Z,61.62
2022-07-29T03:06:30.974Z,61.30
2022-07-29T03:09:12.304Z,60.80
2022-07-29T03:11:47.710Z,61.39
2022-07-29T03:14:20.375Z,62.37
2022-07-29T03:16:48.504Z,61.63
2022-07-29T03:19:15.515Z,61.88
2022-07-29T03:21:42.062Z,61.85
2022-07-29T03:24:10.760Z,63.12
2022-07-29T03:26:37.976Z,62.43
2022-07-29T03:29:04.561Z,62.12
2022-07-29T03:31:32.087Z,62.13
2022-07-29T03:34:00.294Z,61.74
2022-07-29T03:36:26.882Z,64.73
2022-07-29T03:38:53.836Z,65.32
2022-07-29T03:41:23.707Z,65.31
2022-07-29T03:43:52.769Z,65.43
2022-07-29T03:46:24.296Z,64.60
2022-07-29T03:48:57.526Z,64.26
2022-07-29T03:51:33.663Z,64.97
2022-07-29T03:54:13.846Z,65.30
2022-07-29T03:56:48.935Z,66.83
2022-07-29T03:59:17.825Z,65.73
2022-07-29T04:01:44.925Z,65.95
2022-07-29T04:04:13.090Z,66.80
2022-07-29T04:06:44.579Z,66.55
2022-07-29T04:09:12.947Z,66.86
2022-07-29T04:11:59.843Z,67.59
2022-07-29T04:14:27.269Z,67.78
2022-07-29T04:16:54.063Z,67.60
2022-07-29T04:19:20.668Z,68.12
2022-07-29T04:21:47.202Z,68.23
2022-07-29T04:24:14.177Z,67.40
2022-07-29T04:26:40.876Z,67.16
2022-07-29T04:29:07.687Z,68.29
2022-07-29T04:31:34.291Z,70.36
2022-07-29T04:34:00.907Z,69.38
2022-07-29T04:36:29.401Z,70.77
2022-07-29T04:38:56.867Z,70.61
2022-07-29T04:41:23.401Z,71.42
2022-07-29T04:44:01.751Z,69.93
2022-07-29T04:46:28.574Z,70.48
2022-07-29T04:48:55.273Z,70.89
2022-07-29T04:51:22.107Z,72.33
2022-07-29T04:53:48.835Z,73.47
2022-07-29T04:56:15.423Z,76.29
2022-07-29T04:58:41.993Z,83.72
2022-07-29T05:01:08.640Z,89.14
2022-07-29T05:03:35.243Z,89.54
2022-07-29T05:06:01.969Z,90.99
2022-07-29T05:08:28.546Z,90.77
2022-07-29T05:10:55.160Z,89.37
2022-07-29T05:13:21.670Z,97.78
2022-07-29T05:15:48.227Z,93.70
2022-07-29T05:18:15.104Z,95.53
2022-07-29T05:20:41.886Z,93.92
2022-07-29T05:23:08.652Z,91.93
2022-07-29T05:25:42.958Z,93.58
2022-07-29T05:28:14.214Z,92.39
2022-07-29T05:30:40.902Z,94.10
2022-07-29T05:33:07.404Z,94.86
2022-07-29T05:35:35.834Z,94.97
2022-07-29T05:38:02.345Z,95.83
2022-07-29T05:40:28.863Z,95.34
2022-07-29T05:42:55.722Z,97.02
2022-07-29T05:45:25.530Z,96.15
2022-07-29T05:47:52.102Z,97.40
2022-07-29T05:50:18.779Z,98.20
2022-07-29T05:52:45.273Z,96.26
2022-07-29T05:55:12.170Z,95.08
2022-07-29T05:57:38.678Z,94.99
2022-07-29T06:00:05.954Z,94.81
2022-07-29T06:02:32.530Z,96.23
2022-07-29T06:04:59.095Z,97.57
2022-07-29T06:07:25.663Z,96.91
2022-07-29T06:09:52.140Z,97.40
2022-07-29T06:12:18.726Z,97.97
2022-07-29T06:14:45.228Z,97.62
2022-07-29T06:17:12.650Z,98.78
2022-07-29T06:19:39.183Z,100.00
2022-07-29T06:22:05.857Z,99.62
2022-07-29T06:24:32.557Z,99.18
2022-07-29T06:26:59.081Z,98.91
2022-07-29T06:29:25.834Z,96.51
2022-07-29T06:31:52.438Z,95.51
2022-07-29T06:34:20.088Z,97.87
2022-07-29T06:36:47.446Z,94.46
2022-07-29T06:39:14.884Z,94.48
2022-07-29T06:41:41.572Z,93.56
2022-07-29T06:44:08.115Z,94.14
2022-07-29T06:46:34.869Z,95.81
2022-07-29T06:49:02.625Z,95.18
2022-07-29T06:51:29.691Z,95.95
2022-07-29T06:53:59.046Z,94.04
2022-07-29T06:56:39.556Z,93.27
2022-07-29T06:59:08.096Z,93.62
2022-07-29T07:01:34.800Z,94.03
2022-07-29T07:04:01.440Z,94.02
2022-07-29T07:06:28.439Z,93.01
2022-07-29T07:08:55.042Z,91.95
2022-07-29T07:11:21.738Z,92.08
2022-07-29T07:13:48.284Z,90.59
2022-07-29T07:16:15.127Z,90.03
2022-07-29T07:18:41.708Z,89.53
2022-07-29T07:21:08.352Z,89.37
2022-07-29T07:23:34.861Z,88.84
2022-07-29T07:26:01.435Z,88.15
2022-07-29T07:28:27.963Z,87.89
2022-07-29T07:30:54.485Z,87.49
2022-07-29T07:33:21.161Z,87.53
2022-07-29T07:35:47.973Z,85.88
2022-07-29T07:38:14.674Z,85.01
2022-07-29T07:40:41.543Z,84.54
2022-07-29T07:43:08.165Z,84.57
2022-07-29T07:45:34.829Z,84.16
2022-07-29T07:48:01.547Z,83.42
2022-07-29T07:50:28.174Z,82.31
2022-07-29T07:52:59.428Z,81.09
2022-07-29T07:55:26.907Z,79.63
2022-07-29T07:57:54.698Z,78.41
2022-07-29T08:00:22.824Z,78.86
2022-07-29T08:02:50.881Z,78.94
2022-07-29T08:05:18.115Z,79.13
2022-07-29T08:07:48.184Z,78.86
2022-07-29T08:10:38.298Z,77.98
2022-07-29T08:13:09.310Z,78.35
2022-07-29T08:15:36.359Z,78.18
2022-07-29T08:18:08.501Z,77.42
2022-07-29T08:20:36.665Z,77.27
2022-07-29T08:23:04.003Z,77.11
2022-07-29T08:25:30.570Z,76.02
2022-07-29T08:27:57.478Z,76.34
2022-07-29T08:30:24.004Z,76.52
2022-07-29T08:32:55.116Z,76.27
2022-07-29T08:35:23.348Z,75.10
2022-07-29T08:37:50.326Z,74.45
2022-07-29T08:40:17.141Z,74.60
2022-07-29T08:42:43.779Z,74.02
2022-07-29T08:45:10.727Z,73.17
2022-07-29T08:47:40.737Z,72.72
2022-07-29T08:50:11.209Z,72.75
2022-07-29T08:52:41.861Z,72.97
2022-07-29T08:55:10.570Z,73.29
2022-07-29T08:57:39.575Z,73.87
2022-07-29T09:00:19.220Z,75.35
2022-07-29T09:02:52.748Z,74.64
2022-07-29T09:05:20.181Z,73.45
2022-07-29T09:07:49.045Z,73.32
2022-07-29T09:10:15.654Z,74.11
2022-07-29T09:12:42.362Z,74.65
2022-07-29T09:15:09.298Z,74.09
2022-07-29T09:17:47.314Z,77.62
2022-07-29T09:20:17.516Z,76.55
2022-07-29T09:22:44.643Z,75.24
2022-07-29T09:25:13.699Z,75.35
2022-07-29T09:27:40.358Z,76.57
2022-07-29T09:30:13.322Z,76.37
2022-07-29T09:33:01.844Z,76.55
2022-07-29T09:35:29.260Z,75.49
2022-07-29T09:37:55.904Z,75.54
2022-07-29T09:40:28.736Z,75.41
2022-07-29T09:42:58.666Z,75.54
2022-07-29T09:45:33.718Z,75.17
2022-07-29T09:48:13.666Z,75.32
2022-07-29T09:50:41.354Z,75.29
2022-07-29T09:53:10.459Z,76.23
2022-07-29T09:55:52.694Z,78.43
2022-07-29T09:58:21.633Z,83.10
2022-07-29T10:00:49.752Z,84.55
2022-07-29T10:03:17.632Z,87.89
2022-07-29T10:05:45.054Z,89.25
2022-07-29T10:08:16.189Z,91.86
2022-07-29T10:10:43.950Z,92.33
2022-07-29T10:13:15.774Z,93.15
2022-07-29T10:15:45.317Z,94.36
2022-07-29T10:18:13.370Z,95.34
2022-07-29T10:20:40.883Z,97.96
2022-07-29T10:23:07.499Z,98.62
2022-07-29T10:25:34.327Z,98.26
2022-07-29T10:28:00.979Z,99.81
2022-07-29T10:30:27.946Z,96.47
2022-07-29T10:33:18.938Z,100.00
2022-07-29T10:36:08.442Z,99.74
2022-07-29T10:38:46.005Z,98.93
2022-07-29T10:41:46.721Z,100.00
2022-07-29T10:44:23.193Z,99.71
2022-07-29T10:46:51.683Z,100.00
2022-07-29T10:49:18.298Z,100.00
2022-07-29T10:51:57.191Z,100.00
2022-07-29T10:54:52.498Z,100.00
2022-07-29T10:57:53.630Z,100.00
2022-07-29T11:00:16.996Z,100.00
2022-07-29T11:02:45.282Z,100.00
2022-07-29T11:05:15.718Z,100.00
2022-07-29T11:08:19.765Z,100.00
2022-07-29T11:11:15.745Z,100.00
2022-07-29T11:13:55.970Z,100.00
2022-07-29T11:16:24.969Z,100.00
2022-07-29T11:19:14.414Z,100.00
2022-07-29T11:22:05.152Z,100.00
2022-07-29T11:24:33.378Z,100.00
2022-07-29T11:27:21.099Z,100.00
2022-07-29T11:30:02.249Z,99.54
2022-07-29T11:32:41.666Z,100.00
2022-07-29T11:38:23.329Z,98.48
2022-07-29T11:41:21.072Z,98.29
2022-07-29T11:43:50.660Z,95.89
2022-07-29T11:46:38.794Z,90.50
2022-07-29T11:49:09.688Z,88.34
2022-07-29T11:51:38.031Z,82.95
2022-07-29T11:54:18.175Z,80.49
2022-07-29T11:56:54.177Z,77.62
2022-07-29T11:59:22.011Z,76.18
2022-07-29T12:02:12.080Z,72.09
2022-07-29T12:04:55.964Z,69.85
2022-07-29T12:07:01.567Z,99.05
2022-07-29T12:07:35.164Z,69.84
2022-07-29T12:10:03.151Z,68.24
2022-07-29T12:12:29.820Z,67.76
2022-07-29T12:14:56.483Z,66.71
2022-07-29T12:17:31.057Z,64.34
2022-07-29T12:20:01.572Z,62.93
2022-07-29T12:22:33.766Z,57.58
2022-07-29T12:25:30.309Z,56.18
2022-07-29T12:28:03.513Z,55.02
2022-07-29T12:30:43.004Z,56.04
2022-07-29T12:33:29.383Z,53.03
2022-07-29T12:36:07.238Z,50.31
2022-07-29T12:38:36.760Z,50.00
2022-07-29T12:41:04.813Z,48.66
2022-07-29T12:43:32.553Z,46.89
2022-07-29T12:46:13.805Z,43.33
2022-07-29T12:48:42.245Z,45.62
2022-07-29T12:51:10.958Z,44.79
2022-07-29T12:53:38.110Z,44.79
2022-07-29T12:56:20.628Z,44.75
2022-07-29T12:58:52.949Z,44.42
2022-07-29T13:01:21.829Z,44.05
2022-07-29T13:04:01.423Z,43.40
2022-07-29T13:06:35.918Z,44.18
2022-07-29T13:09:10.065Z,45.49
2022-07-29T13:11:48.655Z,45.60
2022-07-29T13:14:34.556Z,45.81
2022-07-29T13:17:02.574Z,46.30
2022-07-29T13:19:45.940Z,46.73
2022-07-29T13:22:14.879Z,46.99
2022-07-29T13:24:53.778Z,47.15
2022-07-29T13:27:22.985Z,47.42
2022-07-29T13:29:52.212Z,46.35
2022-07-29T13:32:19.581Z,46.24
2022-07-29T13:34:56.483Z,45.86
2022-07-29T13:37:23.059Z,45.12
2022-07-29T13:39:51.355Z,46.00
2022-07-29T13:42:20.001Z,45.95
2022-07-29T13:44:46.548Z,44.85
2022-07-29T13:47:13.685Z,45.43
2022-07-29T13:49:40.228Z,44.96
2022-07-29T13:52:08.458Z,45.37
2022-07-29T13:54:41.952Z,45.49
2022-07-29T13:57:09.885Z,44.87
2022-07-29T13:59:36.442Z,44.18
2022-07-29T14:02:03.824Z,43.23
2022-07-29T14:04:30.394Z,42.29
2022-07-29T14:06:56.973Z,41.09
2022-07-29T14:09:23.883Z,40.06
2022-07-29T14:11:52.313Z,40.49
2022-07-29T14:14:18.809Z,39.59
2022-07-29T14:16:47.833Z,39.89
2022-07-29T14:19:17.076Z,39.80
2022-07-29T14:21:43.614Z,39.21
2022-07-29T14:24:18.050Z,38.13
2022-07-29T14:26:48.271Z,37.52
2022-07-29T14:29:15.627Z,36.94
2022-07-29T14:31:44.069Z,36.98
2022-07-29T14:34:10.684Z,37.03
2022-07-29T14:36:37.273Z,37.52
2022-07-29T14:39:04.124Z,37.72
2022-07-29T14:41:30.745Z,37.56
2022-07-29T14:43:57.517Z,36.88
2022-07-29T14:46:24.201Z,36.32
2022-07-29T14:48:50.802Z,36.33
2022-07-29T14:51:17.333Z,35.67
2022-07-29T14:53:44.385Z,35.93
2022-07-29T14:56:35.409Z,35.49
2022-07-29T14:58:58.311Z,36.21
2022-07-29T15:01:25.623Z,36.51
2022-07-29T15:03:55.763Z,36.68
2022-07-29T15:06:26.310Z,36.51
2022-07-29T15:08:52.821Z,36.52
2022-07-29T15:11:19.400Z,36.74
2022-07-29T15:13:46.090Z,36.99
2022-07-29T15:16:12.751Z,37.04
2022-07-29T15:18:39.496Z,37.41
2022-07-29T15:21:07.829Z,37.91
2022-07-29T15:23:37.361Z,37.50
2022-07-29T15:26:04.865Z,38.12
2022-07-29T15:28:31.603Z,38.48
2022-07-29T15:30:58.342Z,39.13
2022-07-29T15:33:24.935Z,40.51
2022-07-29T15:35:51.507Z,39.87
2022-07-29T15:38:18.311Z,39.81
2022-07-29T15:40:46.499Z,39.83
2022-07-29T15:43:13.185Z,40.22
2022-07-29T15:45:42.052Z,40.54
2022-07-29T15:48:10.138Z,40.66
2022-07-29T15:50:41.332Z,40.33
2022-07-29T15:53:07.977Z,40.43
2022-07-29T15:55:34.700Z,40.99
2022-07-29T15:58:01.222Z,41.84
2022-07-29T16:00:27.888Z,41.13
2022-07-29T16:02:54.456Z,41.41
2022-07-29T16:05:21.008Z,42.69
2022-07-29T16:07:47.570Z,43.57
2022-07-29T16:10:15.527Z,43.39
2022-07-29T16:12:42.136Z,42.79
2022-07-29T16:15:10.377Z,42.52
2022-07-29T16:17:38.264Z,42.59
2022-07-29T16:20:06.201Z,42.16
2022-07-29T16:22:32.847Z,42.70
2022-07-29T16:24:59.403Z,42.90
2022-07-29T16:27:35.698Z,43.41
2022-07-29T16:30:06.366Z,43.19
2022-07-29T16:32:33.489Z,42.70
2022-07-29T16:35:02.069Z,43.09
2022-07-29T16:37:33.478Z,42.77
2022-07-29T16:40:00.304Z,43.06
2022-07-29T16:42:45.685Z,43.39
2022-07-29T16:45:13.665Z,43.17
2022-07-29T16:47:40.788Z,42.69
2022-07-29T16:50:08.564Z,42.51
2022-07-29T16:52:36.032Z,42.36
2022-07-29T16:55:02.631Z,42.33
2022-07-29T16:57:29.186Z,42.09
2022-07-29T16:59:55.735Z,42.05
2022-07-29T17:02:22.384Z,42.36
2022-07-29T17:04:48.913Z,42.25
2022-07-29T17:07:16.012Z,42.50
2022-07-29T17:09:42.575Z,42.57
2022-07-29T17:12:09.493Z,42.50
2022-07-29T17:14:36.018Z,42.69
2022-07-29T17:17:03.270Z,43.31
2022-07-29T17:19:33.580Z,43.74
2022-07-29T17:22:09.405Z,44.31
2022-07-29T17:24:38.836Z,44.05
2022-07-29T17:27:06.364Z,43.99
2022-07-29T17:29:34.785Z,44.25
2022-07-29T17:32:01.855Z,44.25
2022-07-29T17:34:28.451Z,44.11
2022-07-29T17:36:55.313Z,44.22
2022-07-29T17:39:22.053Z,44.36
2022-07-29T17:41:48.635Z,44.39
2022-07-29T17:44:15.465Z,44.42
2022-07-29T17:46:42.056Z,44.95
2022-07-29T17:49:08.728Z,45.47
2022-07-29T17:51:35.385Z,45.63
2022-07-29T17:54:02.586Z,45.79
2022-07-29T17:56:29.166Z,45.80
2022-07-29T17:58:56.076Z,46.27
2022-07-29T18:01:23.681Z,46.75
2022-07-29T18:03:50.379Z,46.88
2022-07-29T18:06:16.960Z,46.72
2022-07-29T18:08:47.397Z,47.01
2022-07-29T18:11:15.078Z,47.16
2022-07-29T18:13:41.893Z,47.48
2022-07-29T18:16:09.247Z,47.84
2022-07-29T18:18:35.961Z,49.57
2022-07-29T18:21:02.619Z,50.21
2022-07-29T18:23:29.105Z,50.09
2022-07-29T18:25:56.034Z,49.80
2022-07-29T18:28:22.664Z,49.95
2022-07-29T18:30:50.399Z,50.82
2022-07-29T18:33:21.381Z,51.03
2022-07-29T18:35:51.470Z,53.14
2022-07-29T18:38:18.485Z,51.91
2022-07-29T18:40:46.103Z,52.20
2022-07-29T18:43:13.652Z,52.90
2022-07-29T18:45:40.578Z,53.20
2022-07-29T18:48:11.896Z,52.92
2022-07-29T18:50:40.469Z,53.41
2022-07-29T18:53:07.246Z,54.02
2022-07-29T18:55:33.869Z,54.82
2022-07-29T18:58:00.460Z,55.47
2022-07-29T19:00:27.442Z,55.29
2022-07-29T19:02:54.256Z,55.94
2022-07-29T19:05:21.330Z,56.22
2022-07-29T19:07:48.145Z,56.35
2022-07-29T19:10:17.143Z,56.42
2022-07-29T19:12:43.852Z,57.41
2022-07-29T19:15:10.957Z,57.87
2022-07-29T19:17:38.637Z,59.12
2022-07-29T19:20:07.469Z,59.87
2022-07-29T19:22:34.599Z,61.11
2022-07-29T19:25:01.421Z,62.20
2022-07-29T19:27:28.023Z,61.90
2022-07-29T19:29:58.982Z,63.75
2022-07-29T19:32:26.231Z,64.36
2022-07-29T19:35:11.709Z,64.36
2022-07-29T19:37:38.416Z,63.01
2022-07-29T19:40:06.287Z,62.95
2022-07-29T19:42:32.937Z,65.77
2022-07-29T19:44:59.975Z,65.32
2022-07-29T19:47:26.467Z,65.99
2022-07-29T19:49:52.949Z,67.17
2022-07-29T19:52:19.540Z,67.90
2022-07-29T19:54:46.090Z,67.48
2022-07-29T19:57:12.740Z,68.95
2022-07-29T19:59:40.843Z,69.11
2022-07-29T20:02:10.671Z,69.44
2022-07-29T20:04:37.532Z,69.52
2022-07-29T20:07:04.620Z,70.18
2022-07-29T20:09:31.276Z,70.70
2022-07-29T20:11:58.076Z,71.22
2022-07-29T20:14:24.645Z,72.88
2022-07-29T20:16:53.663Z,74.11
2022-07-29T20:19:20.633Z,73.87
2022-07-29T20:21:47.174Z,74.70
2022-07-29T20:24:13.767Z,75.54
2022-07-29T20:26:40.355Z,76.28
2022-07-29T20:29:06.947Z,77.23
2022-07-29T20:31:33.598Z,77.79
2022-07-29T20:34:01.396Z,78.00
2022-07-29T20:36:28.465Z,77.61
2022-07-29T20:38:55.567Z,78.59
2022-07-29T20:41:22.633Z,79.03
2022-07-29T20:43:49.855Z,79.18
2022-07-29T20:46:16.821Z,79.08
2022-07-29T20:48:43.584Z,80.64
2022-07-29T20:51:10.549Z,81.41
2022-07-29T20:53:40.783Z,81.67
2022-07-29T20:56:07.964Z,82.88
2022-07-29T20:58:36.684Z,83.05
2022-07-29T21:01:04.352Z,82.81
2022-07-29T21:03:32.460Z,83.01
2022-07-29T21:05:59.985Z,84.30
2022-07-29T21:08:27.272Z,84.43
2022-07-29T21:10:54.734Z,84.64
2022-07-29T21:13:23.005Z,84.79
2022-07-29T21:15:51.691Z,84.60
2022-07-29T21:18:32.490Z,85.63
2022-07-29T21:21:04.196Z,86.69
2022-07-29T21:23:30.884Z,86.71
2022-07-29T21:25:57.865Z,89.31
2022-07-29T21:28:27.681Z,89.61
2022-07-29T21:30:55.313Z,88.92
2022-07-29T21:33:22.173Z,90.22
2022-07-29T21:36:26.832Z,91.72
2022-07-29T21:38:36.563Z,91.07
2022-07-29T21:41:04.298Z,91.33
2022-07-29T21:43:31.611Z,93.01
2022-07-29T21:45:59.649Z,92.42
2022-07-29T21:48:28.249Z,92.43
2022-07-29T21:50:55.145Z,93.30
2022-07-29T21:53:22.099Z,94.25
2022-07-29T21:55:54.329Z,94.55
2022-07-29T21:58:23.965Z,95.45
2022-07-29T22:00:50.608Z,95.06
2022-07-29T22:03:17.213Z,94.10
2022-07-29T22:05:44.583Z,95.08
2022-07-29T22:08:11.312Z,96.12
2022-07-29T22:10:37.917Z,94.52
2022-07-29T22:13:04.720Z,95.67
2022-07-29T22:15:32.346Z,96.24
2022-07-29T22:17:59.464Z,96.86
2022-07-29T22:20:27.084Z,96.44
2022-07-29T22:22:54.113Z,96.85
2022-07-29T22:25:21.266Z,95.50
2022-07-29T22:27:47.939Z,97.63
2022-07-29T22:30:15.245Z,97.54
2022-07-29T22:32:42.014Z,97.33
2022-07-29T22:35:08.794Z,96.65
2022-07-29T22:37:35.449Z,97.48
2022-07-29T22:40:02.397Z,97.54
2022-07-29T22:42:28.942Z,100.00
2022-07-29T22:44:55.497Z,98.69
2022-07-29T22:47:46.503Z,98.20
2022-07-29T22:50:09.074Z,98.85
2022-07-29T22:52:35.674Z,99.09
2022-07-29T22:55:03.332Z,99.64
2022-07-29T22:57:29.831Z,100.00
2022-07-29T22:59:56.324Z,100.00
2022-07-29T23:02:22.822Z,100.00
2022-07-29T23:04:49.280Z,100.00
2022-07-29T23:07:15.829Z,100.00
2022-07-29T23:09:42.329Z,100.00
2022-07-29T23:12:09.012Z,100.00
2022-07-29T23:14:35.538Z,100.00
2022-07-29T23:17:02.457Z,100.00
2022-07-29T23:19:29.409Z,100.00
2022-07-29T23:21:55.995Z,100.00
2022-07-29T23:24:22.553Z,100.00
2022-07-29T23:26:49.028Z,100.00
2022-07-29T23:29:17.934Z,100.00
2022-07-29T23:31:48.057Z,100.00
2022-07-29T23:34:14.994Z,100.00
2022-07-29T23:36:42.351Z,100.00
2022-07-29T23:39:13.116Z,100.00
2022-07-29T23:41:39.782Z,100.00
2022-07-29T23:44:06.515Z,100.00
2022-07-29T23:46:33.294Z,100.00
2022-07-29T23:49:00.162Z,100.00
2022-07-29T23:51:28.935Z,100.00
2022-07-29T23:53:55.552Z,100.00
2022-07-29T23:56:22.202Z,100.00
2022-07-29T23:58:48.749Z,100.00
